createdAt,value
2019-02-26T00:01:01.193Z,0.70
2019-02-26T00:03:33.076Z,0.60
2019-02-26T00:06:01.558Z,0.70
2019-02-26T00:08:29.659Z,0.70
2019-02-26T00:11:00.781Z,0.57
2019-02-26T00:13:27.668Z,0.67
2019-02-26T00:15:55.950Z,0.63
2019-02-26T00:18:23.570Z,0.60
2019-02-26T00:20:50.725Z,0.73
2019-02-26T00:23:19.813Z,0.30
2019-02-26T00:25:46.826Z,0.57
2019-02-26T00:28:15.867Z,0.30
2019-02-26T00:30:42.900Z,0.40
2019-02-26T00:33:10.000Z,0.70
2019-02-26T00:35:37.116Z,0.80
2019-02-26T00:38:06.128Z,0.50
2019-02-26T00:40:34.937Z,0.40
2019-02-26T00:43:04.331Z,0.80
2019-02-26T00:45:32.317Z,0.57
2019-02-26T00:48:00.202Z,0.50
2019-02-26T00:50:28.122Z,0.63
2019-02-26T00:52:57.077Z,0.67
2019-02-26T00:55:27.526Z,0.50
2019-02-26T00:57:56.786Z,0.60
2019-02-26T01:00:24.625Z,0.67
2019-02-26T01:02:52.215Z,0.60
2019-02-26T01:05:19.298Z,0.40
2019-02-26T01:07:48.893Z,0.40
2019-02-26T01:10:16.410Z,0.60
2019-02-26T01:12:44.360Z,0.40
2019-02-26T01:15:13.917Z,0.50
2019-02-26T01:17:42.226Z,0.53
2019-02-26T01:20:11.569Z,0.50
2019-02-26T01:22:40.249Z,0.60
2019-02-26T01:25:10.109Z,0.80
2019-02-26T01:27:37.043Z,0.53
2019-02-26T01:30:05.290Z,0.50
2019-02-26T01:32:32.383Z,0.33
2019-02-26T01:35:00.947Z,0.60
2019-02-26T01:37:29.964Z,0.40
2019-02-26T01:39:57.464Z,0.47
2019-02-26T01:42:25.362Z,0.50
2019-02-26T01:44:53.535Z,0.50
2019-02-26T01:47:21.840Z,1.00
2019-02-26T01:49:51.120Z,0.50
2019-02-26T01:52:18.346Z,1.13
2019-02-26T01:54:45.434Z,0.50
2019-02-26T01:57:12.522Z,0.80
2019-02-26T01:59:39.610Z,0.53
2019-02-26T02:02:06.696Z,0.60
2019-02-26T02:04:34.298Z,0.70
2019-02-26T02:07:04.225Z,0.70
2019-02-26T02:09:32.080Z,0.67
2019-02-26T02:12:00.079Z,0.73
2019-02-26T02:14:28.178Z,0.50
2019-02-26T02:16:55.283Z,0.40
2019-02-26T02:19:24.761Z,0.80
2019-02-26T02:21:52.061Z,0.80
2019-02-26T02:24:22.265Z,0.67
2019-02-26T02:26:50.429Z,0.57
2019-02-26T02:29:19.202Z,0.43
2019-02-26T02:31:47.376Z,0.53
2019-02-26T02:34:14.456Z,0.50
2019-02-26T02:36:41.573Z,0.60
2019-02-26T02:39:13.018Z,0.40
2019-02-26T02:41:42.077Z,0.43
2019-02-26T02:44:12.333Z,0.80
2019-02-26T02:46:39.261Z,0.53
2019-02-26T02:49:07.510Z,0.57
2019-02-26T02:51:37.156Z,0.70
2019-02-26T02:54:04.710Z,0.43
2019-02-26T02:56:33.376Z,0.53
2019-02-26T02:59:00.808Z,0.53
2019-02-26T03:01:28.657Z,0.60
2019-02-26T03:03:59.030Z,0.37
2019-02-26T03:06:28.216Z,0.63
2019-02-26T03:08:54.984Z,0.53
2019-02-26T03:11:22.084Z,0.50
2019-02-26T03:13:51.226Z,0.60
2019-02-26T03:16:19.448Z,0.67
2019-02-26T03:18:47.169Z,0.50
2019-02-26T03:21:16.193Z,0.53
2019-02-26T03:23:45.497Z,0.40
2019-02-26T03:26:14.679Z,0.77
2019-02-26T03:28:42.128Z,0.60
2019-02-26T03:31:10.247Z,0.70
2019-02-26T03:33:37.326Z,0.60
2019-02-26T03:36:08.557Z,0.50
2019-02-26T03:38:35.250Z,0.60
2019-02-26T03:41:03.651Z,0.60
2019-02-26T03:43:31.389Z,0.53
2019-02-26T03:45:59.862Z,0.60
2019-02-26T03:48:26.948Z,0.60
2019-02-26T03:50:54.042Z,0.47
2019-02-26T03:53:25.559Z,0.67
2019-02-26T03:55:50.325Z,0.70
2019-02-26T03:58:17.667Z,0.67
2019-02-26T04:00:46.850Z,0.70
2019-02-26T04:03:15.133Z,0.47
2019-02-26T04:05:43.365Z,0.50
2019-02-26T04:08:10.657Z,0.50
2019-02-26T04:10:37.742Z,0.60
2019-02-26T04:13:04.823Z,0.60
2019-02-26T04:15:33.515Z,0.67
2019-02-26T04:18:00.921Z,0.53
2019-02-26T04:20:28.031Z,0.60
2019-02-26T04:22:56.815Z,0.30
2019-02-26T04:25:49.483Z,0.50
2019-02-26T04:28:27.238Z,0.60
2019-02-26T04:31:29.321Z,0.80
2019-02-26T04:34:12.815Z,0.50
2019-02-26T04:37:12.886Z,0.30
2019-02-26T04:40:11.033Z,0.33
2019-02-26T04:43:25.432Z,0.27
2019-02-26T04:46:21.843Z,0.50
2019-02-26T04:48:49.283Z,0.63
2019-02-26T04:51:16.334Z,0.60
2019-02-26T04:53:43.393Z,0.57
2019-02-26T04:56:12.839Z,0.40
2019-02-26T04:58:40.363Z,0.57
2019-02-26T05:01:10.109Z,0.40
2019-02-26T05:03:37.459Z,0.50
2019-02-26T05:06:05.909Z,0.73
2019-02-26T05:08:37.113Z,0.50
2019-02-26T05:11:02.489Z,0.40
2019-02-26T05:13:34.530Z,0.90
2019-02-26T05:16:01.263Z,0.60
2019-02-26T05:18:29.065Z,0.53
2019-02-26T05:20:59.158Z,0.40
2019-02-26T05:23:28.281Z,0.70
2019-02-26T05:25:59.754Z,0.43
2019-02-26T05:28:24.942Z,0.60
2019-02-26T05:30:52.007Z,0.40
2019-02-26T05:33:21.631Z,0.93
2019-02-26T05:35:49.005Z,0.67
2019-02-26T05:38:17.036Z,0.53
2019-02-26T05:40:45.188Z,0.53
2019-02-26T05:43:13.076Z,0.70
2019-02-26T05:45:40.131Z,0.70
2019-02-26T05:48:07.373Z,0.70
2019-02-26T05:50:35.535Z,0.63
2019-02-26T05:53:05.510Z,0.87
2019-02-26T05:55:32.371Z,0.40
2019-02-26T05:57:59.448Z,0.57
2019-02-26T06:00:30.612Z,0.60
2019-02-26T06:02:55.472Z,0.40
2019-02-26T06:05:23.197Z,0.60
2019-02-26T06:07:52.204Z,0.70
2019-02-26T06:10:21.489Z,0.63
2019-02-26T06:12:48.460Z,0.97
2019-02-26T06:15:15.518Z,0.50
2019-02-26T06:17:45.217Z,0.70
2019-02-26T06:20:14.635Z,0.60
2019-02-26T06:22:41.694Z,0.87
2019-02-26T06:25:13.893Z,0.50
2019-02-26T06:27:37.750Z,0.63
2019-02-26T06:30:07.319Z,0.50
2019-02-26T06:32:36.742Z,0.50
2019-02-26T06:35:06.701Z,0.70
2019-02-26T06:37:35.544Z,0.60
2019-02-26T06:40:05.207Z,0.93
2019-02-26T06:42:33.763Z,1.23
2019-02-26T06:45:03.995Z,0.63
2019-02-26T06:47:32.896Z,0.73
2019-02-26T06:49:59.947Z,0.90
2019-02-26T06:52:27.022Z,0.77
2019-02-26T06:54:57.260Z,0.63
2019-02-26T06:57:23.072Z,0.80
2019-02-26T06:59:51.015Z,0.60
2019-02-26T07:02:19.113Z,0.60
2019-02-26T07:04:46.230Z,1.63
2019-02-26T07:07:14.424Z,0.53
2019-02-26T07:09:43.759Z,1.80
2019-02-26T07:12:10.670Z,0.97
2019-02-26T07:14:37.727Z,0.70
2019-02-26T07:17:06.103Z,0.80
2019-02-26T07:19:35.640Z,0.83
2019-02-26T07:22:02.211Z,0.90
2019-02-26T07:24:29.392Z,1.00
2019-02-26T07:26:56.448Z,0.77
2019-02-26T07:29:23.553Z,0.77
2019-02-26T07:31:51.876Z,1.60
2019-02-26T07:34:20.607Z,0.97
2019-02-26T07:36:50.706Z,0.67
2019-02-26T07:39:20.916Z,0.70
2019-02-26T07:41:49.300Z,1.00
2019-02-26T07:44:18.870Z,1.03
2019-02-26T07:46:45.771Z,1.13
2019-02-26T07:49:12.852Z,1.03
2019-02-26T07:51:40.449Z,0.87
2019-02-26T07:54:08.932Z,0.67
2019-02-26T07:56:36.019Z,0.70
2019-02-26T07:59:06.792Z,1.17
2019-02-26T08:01:32.260Z,0.97
2019-02-26T08:03:59.333Z,1.00
2019-02-26T08:06:28.799Z,0.93
2019-02-26T08:08:55.358Z,1.00
2019-02-26T08:11:22.428Z,0.90
2019-02-26T08:13:52.486Z,0.60
2019-02-26T08:16:21.323Z,0.70
2019-02-26T08:18:49.455Z,0.80
2019-02-26T08:21:21.732Z,0.87
2019-02-26T08:23:50.546Z,0.80
2019-02-26T08:26:19.846Z,0.83
2019-02-26T08:28:48.174Z,0.90
2019-02-26T08:31:17.810Z,1.13
2019-02-26T08:33:48.640Z,1.10
2019-02-26T08:36:14.098Z,1.77
2019-02-26T08:38:41.375Z,0.87
2019-02-26T08:41:08.457Z,1.07
2019-02-26T08:43:35.513Z,1.43
2019-02-26T08:46:02.586Z,1.47
2019-02-26T08:48:29.648Z,1.30
2019-02-26T08:51:00.775Z,1.40
2019-02-26T08:53:26.643Z,1.63
2019-02-26T08:55:56.273Z,1.50
2019-02-26T08:58:25.714Z,1.60
2019-02-26T09:00:52.564Z,0.90
2019-02-26T09:03:20.418Z,0.83
2019-02-26T09:05:49.290Z,0.97
2019-02-26T09:08:18.205Z,1.57
2019-02-26T09:10:46.941Z,0.80
2019-02-26T09:13:16.327Z,1.40
2019-02-26T09:15:43.370Z,1.40
2019-02-26T09:18:10.434Z,1.00
2019-02-26T09:20:37.503Z,1.10
2019-02-26T09:23:04.575Z,1.40
2019-02-26T09:25:33.984Z,1.50
2019-02-26T09:28:01.255Z,1.17
2019-02-26T09:30:31.002Z,0.93
2019-02-26T09:32:59.125Z,0.93
2019-02-26T09:35:28.866Z,1.53
2019-02-26T09:37:57.884Z,1.23
2019-02-26T09:40:29.013Z,1.40
2019-02-26T09:42:58.124Z,0.70
2019-02-26T09:45:28.609Z,1.53
2019-02-26T09:47:55.870Z,0.90
2019-02-26T09:50:23.125Z,1.40
2019-02-26T09:52:50.826Z,1.57
2019-02-26T09:55:19.489Z,1.47
2019-02-26T09:57:46.635Z,1.23
2019-02-26T10:00:16.836Z,1.00
2019-02-26T10:02:49.490Z,1.40
2019-02-26T10:05:18.285Z,0.93
2019-02-26T10:07:48.485Z,1.40
2019-02-26T10:10:16.293Z,1.40
2019-02-26T10:12:43.355Z,1.30
2019-02-26T10:15:11.324Z,1.27
2019-02-26T10:17:40.943Z,1.03
2019-02-26T10:20:36.800Z,1.20
2019-02-26T10:23:06.180Z,1.20
2019-02-26T10:25:34.957Z,1.10
2019-02-26T10:28:08.676Z,1.10
2019-02-26T10:30:36.972Z,2.57
2019-02-26T10:33:06.425Z,1.30
2019-02-26T10:35:36.066Z,1.10
2019-02-26T10:38:05.165Z,1.23
2019-02-26T10:40:35.555Z,1.27
2019-02-26T10:43:01.545Z,1.10
2019-02-26T10:45:28.851Z,1.30
2019-02-26T10:47:56.913Z,1.40
2019-02-26T10:50:29.886Z,1.17
2019-02-26T10:52:57.847Z,1.30
2019-02-26T10:55:53.651Z,1.07
2019-02-26T10:58:20.851Z,1.50
2019-02-26T11:00:53.194Z,1.10
2019-02-26T11:03:20.460Z,0.90
2019-02-26T11:05:48.783Z,1.23
2019-02-26T11:08:16.495Z,1.17
2019-02-26T11:10:44.915Z,1.00
2019-02-26T11:13:17.721Z,1.30
2019-02-26T11:15:45.621Z,1.07
2019-02-26T11:18:15.134Z,1.17
2019-02-26T11:20:41.688Z,0.80
2019-02-26T11:23:11.144Z,1.30
2019-02-26T11:25:37.805Z,1.00
2019-02-26T11:28:07.399Z,1.10
2019-02-26T11:30:33.835Z,0.70
2019-02-26T11:33:04.753Z,1.00
2019-02-26T11:35:29.955Z,1.00
2019-02-26T11:37:58.127Z,1.10
2019-02-26T11:40:27.645Z,0.90
2019-02-26T11:42:54.285Z,1.10
2019-02-26T11:45:21.547Z,1.17
2019-02-26T11:47:48.608Z,0.87
2019-02-26T11:50:16.290Z,1.23
2019-02-26T11:52:43.405Z,1.30
2019-02-26T11:55:11.339Z,1.30
2019-02-26T11:57:39.868Z,1.50
2019-02-26T12:00:13.955Z,1.40
2019-02-26T12:02:43.570Z,1.03
2019-02-26T12:05:10.814Z,1.33
2019-02-26T12:07:37.940Z,1.30
2019-02-26T12:10:09.525Z,0.90
2019-02-26T12:12:36.832Z,1.13
2019-02-26T12:15:06.790Z,0.87
2019-02-26T12:17:35.713Z,0.70
2019-02-26T12:20:02.901Z,0.83
2019-02-26T12:22:29.986Z,0.80
2019-02-26T12:24:58.857Z,0.93
2019-02-26T12:27:26.004Z,3.27
2019-02-26T12:29:54.576Z,0.87
2019-02-26T12:32:22.351Z,1.43
2019-02-26T12:34:51.454Z,0.90
2019-02-26T12:37:18.601Z,1.20
2019-02-26T12:39:47.342Z,1.27
2019-02-26T12:42:15.959Z,0.97
2019-02-26T12:44:45.498Z,1.00
2019-02-26T12:47:14.696Z,1.13
2019-02-26T12:49:44.272Z,0.90
2019-02-26T12:52:10.459Z,0.83
2019-02-26T12:54:39.964Z,0.90
2019-02-26T12:57:06.483Z,1.37
2019-02-26T12:59:33.557Z,1.03
2019-02-26T13:02:00.632Z,0.90
2019-02-26T13:04:27.693Z,1.00
2019-02-26T13:06:54.751Z,0.80
2019-02-26T13:09:26.592Z,1.40
2019-02-26T13:12:01.123Z,1.10
2019-02-26T13:14:20.233Z,1.17
2019-02-26T13:16:48.830Z,1.40
2019-02-26T13:19:21.473Z,0.83
2019-02-26T13:21:45.249Z,1.13
2019-02-26T13:24:17.071Z,1.10
2019-02-26T13:26:43.536Z,0.90
2019-02-26T13:29:10.227Z,1.37
2019-02-26T13:31:44.831Z,1.00
2019-02-26T13:34:06.321Z,1.13
2019-02-26T13:39:04.116Z,1.13
2019-02-26T13:41:38.407Z,1.17
2019-02-26T13:44:00.208Z,1.30
2019-02-26T13:46:27.259Z,1.00
2019-02-26T13:48:54.322Z,1.00
2019-02-26T13:51:21.484Z,1.20
2019-02-26T13:53:48.540Z,0.90
2019-02-26T13:56:15.617Z,1.03
2019-02-26T13:58:42.775Z,1.43
2019-02-26T14:01:09.880Z,1.00
2019-02-26T14:03:36.952Z,1.47
2019-02-26T14:06:04.005Z,1.30
2019-02-26T14:08:31.072Z,0.90
2019-02-26T14:10:58.143Z,1.00
2019-02-26T14:13:25.209Z,1.10
2019-02-26T14:15:52.278Z,1.07
2019-02-26T14:18:19.339Z,1.07
2019-02-26T14:20:46.409Z,0.83
2019-02-26T14:23:13.471Z,1.43
2019-02-26T14:25:40.840Z,2.13
2019-02-26T14:28:07.906Z,0.90
2019-02-26T14:30:34.971Z,1.10
2019-02-26T14:33:02.046Z,3.50
2019-02-26T14:35:29.138Z,1.07
2019-02-26T14:37:56.205Z,1.20
2019-02-26T14:40:23.269Z,1.40
2019-02-26T14:42:52.939Z,1.10
2019-02-26T14:45:20.016Z,1.23
2019-02-26T14:47:47.112Z,0.93
2019-02-26T14:50:15.011Z,0.90
2019-02-26T14:52:42.262Z,2.97
2019-02-26T14:55:09.978Z,1.37
2019-02-26T14:57:41.813Z,1.90
2019-02-26T15:00:27.154Z,2.00
2019-02-26T15:02:54.376Z,2.73
2019-02-26T15:05:21.486Z,1.90
2019-02-26T15:07:48.560Z,1.73
2019-02-26T15:10:15.773Z,1.47
2019-02-26T15:12:42.901Z,1.43
2019-02-26T15:15:11.103Z,1.90
2019-02-26T15:17:38.223Z,1.73
2019-02-26T15:20:07.278Z,1.67
2019-02-26T15:22:34.343Z,1.30
2019-02-26T15:25:01.412Z,1.23
2019-02-26T15:27:35.997Z,1.90
2019-02-26T15:29:59.618Z,1.30
2019-02-26T15:32:26.870Z,1.17
2019-02-26T15:34:53.969Z,1.47
2019-02-26T15:37:21.092Z,1.67
2019-02-26T15:39:48.159Z,2.17
2019-02-26T15:42:15.218Z,1.50
2019-02-26T15:44:42.374Z,1.37
2019-02-26T15:47:09.448Z,1.37
2019-02-26T15:49:37.777Z,1.20
2019-02-26T15:52:05.347Z,1.43
2019-02-26T15:54:32.741Z,1.63
2019-02-26T15:57:00.445Z,1.53
2019-02-26T15:59:28.107Z,1.13
2019-02-26T16:01:55.550Z,1.23
2019-02-26T16:04:23.161Z,1.50
2019-02-26T16:06:50.230Z,1.23
2019-02-26T16:09:17.294Z,1.23
2019-02-26T16:11:44.367Z,1.63
2019-02-26T16:14:11.448Z,1.17
2019-02-26T16:16:38.534Z,1.50
2019-02-26T16:19:05.602Z,1.23
2019-02-26T16:21:32.663Z,1.70
2019-02-26T16:23:59.770Z,1.50
2019-02-26T16:26:26.842Z,1.43
2019-02-26T16:28:56.525Z,1.30
2019-02-26T16:31:23.783Z,0.97
2019-02-26T16:33:50.874Z,2.43
2019-02-26T16:36:18.058Z,2.30
2019-02-26T16:38:45.155Z,2.47
2019-02-26T16:41:12.229Z,2.10
2019-02-26T16:43:39.310Z,1.60
2019-02-26T16:46:08.528Z,1.93
2019-02-26T16:48:35.669Z,1.97
2019-02-26T16:51:04.064Z,2.57
2019-02-26T16:53:33.497Z,1.10
2019-02-26T16:56:00.114Z,1.47
2019-02-26T16:58:28.540Z,1.80
2019-02-26T17:00:58.609Z,1.53
2019-02-26T17:03:26.075Z,3.57
2019-02-26T17:05:53.148Z,2.33
2019-02-26T17:08:20.219Z,2.23
2019-02-26T17:10:47.419Z,2.50
2019-02-26T17:13:14.486Z,2.43
2019-02-26T17:15:41.758Z,4.23
2019-02-26T17:18:09.827Z,3.40
2019-02-26T17:20:37.499Z,1.67
2019-02-26T17:23:04.595Z,1.33
2019-02-26T17:25:31.669Z,1.53
2019-02-26T17:27:58.723Z,3.20
2019-02-26T17:30:27.808Z,3.30
2019-02-26T17:32:54.922Z,3.20
2019-02-26T17:35:21.990Z,3.27
2019-02-26T17:37:49.074Z,2.97
2019-02-26T17:40:16.708Z,2.53
2019-02-26T17:42:43.799Z,3.10
2019-02-26T17:45:13.112Z,3.50
2019-02-26T17:47:41.979Z,4.37
2019-02-26T17:50:12.597Z,2.53
2019-02-26T17:52:39.729Z,2.53
2019-02-26T17:55:09.171Z,2.43
2019-02-26T17:57:36.076Z,2.77
2019-02-26T18:00:04.672Z,2.73
2019-02-26T18:02:32.992Z,2.30
2019-02-26T18:05:00.764Z,2.03
2019-02-26T18:07:29.088Z,4.17
2019-02-26T18:09:56.436Z,2.57
2019-02-26T18:12:23.532Z,2.33
2019-02-26T18:14:50.599Z,2.00
2019-02-26T18:17:17.670Z,2.43
2019-02-26T18:19:49.461Z,2.40
2019-02-26T18:22:21.602Z,2.13
2019-02-26T18:24:48.261Z,2.03
2019-02-26T18:27:15.656Z,3.43
2019-02-26T18:29:42.743Z,2.30
2019-02-26T18:32:11.244Z,2.50
2019-02-26T18:34:38.828Z,2.30
2019-02-26T18:37:05.940Z,1.90
2019-02-26T18:39:33.023Z,2.63
2019-02-26T18:42:00.103Z,4.70
2019-02-26T18:44:27.287Z,3.77
2019-02-26T18:46:54.359Z,2.67
2019-02-26T18:49:22.403Z,3.40
2019-02-26T18:51:49.851Z,3.30
2019-02-26T18:54:17.725Z,1.87
2019-02-26T18:56:46.065Z,2.03
2019-02-26T18:59:13.296Z,2.43
2019-02-26T19:01:40.367Z,2.10
2019-02-26T19:04:07.439Z,2.93
2019-02-26T19:06:34.527Z,2.10
2019-02-26T19:09:01.642Z,2.10
2019-02-26T19:11:28.796Z,2.03
2019-02-26T19:13:55.884Z,1.80
2019-02-26T19:16:22.965Z,2.30
2019-02-26T19:18:50.029Z,2.87
2019-02-26T19:21:17.112Z,2.57
2019-02-26T19:23:45.338Z,1.90
2019-02-26T19:26:13.852Z,1.77
2019-02-26T19:28:41.418Z,2.00
2019-02-26T19:31:11.164Z,1.93
2019-02-26T19:33:40.013Z,2.10
2019-02-26T19:36:07.223Z,2.20
2019-02-26T19:38:37.970Z,1.73
2019-02-26T19:41:13.151Z,2.00
2019-02-26T19:43:41.734Z,3.20
2019-02-26T19:46:10.349Z,1.87
2019-02-26T19:48:40.131Z,1.70
2019-02-26T19:51:09.018Z,1.80
2019-02-26T19:53:38.529Z,1.73
2019-02-26T19:56:05.631Z,1.70
2019-02-26T19:58:40.796Z,2.10
2019-02-26T20:01:11.050Z,1.37
2019-02-26T20:03:40.147Z,1.77
2019-02-26T20:06:07.079Z,3.00
2019-02-26T20:08:34.143Z,1.67
2019-02-26T20:11:01.216Z,1.47
2019-02-26T20:13:28.333Z,1.50
2019-02-26T20:15:55.452Z,1.40
2019-02-26T20:18:25.807Z,1.30
2019-02-26T20:20:52.551Z,1.77
2019-02-26T20:23:19.623Z,1.10
2019-02-26T20:25:46.951Z,1.37
2019-02-26T20:28:14.056Z,1.50
2019-02-26T20:30:41.121Z,1.90
2019-02-26T20:33:08.224Z,1.40
2019-02-26T20:35:36.730Z,1.50
2019-02-26T20:38:03.809Z,1.87
2019-02-26T20:40:30.894Z,1.30
2019-02-26T20:43:01.428Z,1.40
2019-02-26T20:45:28.744Z,1.40
2019-02-26T20:47:57.110Z,1.30
2019-02-26T20:50:24.224Z,1.40
2019-02-26T20:52:51.293Z,1.20
2019-02-26T20:55:19.877Z,1.20
2019-02-26T20:57:47.050Z,1.53
2019-02-26T21:00:15.681Z,1.23
2019-02-26T21:02:42.748Z,1.10
2019-02-26T21:05:10.093Z,1.00
2019-02-26T21:07:37.176Z,1.10
2019-02-26T21:10:04.618Z,1.10
2019-02-26T21:12:31.682Z,1.40
2019-02-26T21:14:58.756Z,1.20
2019-02-26T21:17:26.347Z,1.00
2019-02-26T21:19:53.489Z,1.20
2019-02-26T21:22:22.109Z,1.00
2019-02-26T21:24:49.536Z,0.90
2019-02-26T21:27:16.612Z,0.83
2019-02-26T21:29:43.680Z,0.70
2019-02-26T21:32:10.740Z,0.60
2019-02-26T21:34:37.806Z,1.10
2019-02-26T21:37:04.883Z,1.30
2019-02-26T21:39:31.951Z,1.10
2019-02-26T21:41:59.018Z,0.83
2019-02-26T21:44:26.099Z,0.90
2019-02-26T21:46:55.827Z,0.90
2019-02-26T21:49:22.140Z,0.80
2019-02-26T21:51:49.208Z,0.77
2019-02-26T21:54:16.287Z,0.50
2019-02-26T21:56:43.342Z,1.00
2019-02-26T21:59:10.416Z,1.00
2019-02-26T22:01:37.479Z,0.73
2019-02-26T22:04:04.551Z,0.80
2019-02-26T22:06:31.621Z,0.70
2019-02-26T22:08:58.683Z,0.90
2019-02-26T22:11:25.761Z,0.80
2019-02-26T22:13:52.820Z,0.83
2019-02-26T22:16:19.888Z,0.70
2019-02-26T22:18:46.964Z,0.73
2019-02-26T22:21:14.027Z,0.80
2019-02-26T22:23:41.102Z,0.77
2019-02-26T22:26:08.200Z,0.87
2019-02-26T22:28:35.269Z,0.90
2019-02-26T22:31:02.334Z,1.00
2019-02-26T22:33:30.504Z,0.77
2019-02-26T22:35:59.852Z,0.63
2019-02-26T22:38:26.547Z,0.77
2019-02-26T22:40:53.612Z,1.27
2019-02-26T22:43:20.695Z,0.80
2019-02-26T22:45:47.816Z,0.73
2019-02-26T22:48:14.872Z,0.87
2019-02-26T22:50:41.930Z,0.60
2019-02-26T22:53:08.999Z,0.70
2019-02-26T22:55:36.066Z,0.83
2019-02-26T22:58:03.398Z,0.70
2019-02-26T23:00:55.795Z,0.70
2019-02-26T23:03:22.969Z,0.60
2019-02-26T23:05:58.761Z,0.77
2019-02-26T23:08:23.916Z,0.60
2019-02-26T23:10:56.915Z,0.63
2019-02-26T23:13:25.151Z,0.50
2019-02-26T23:15:55.959Z,1.20
2019-02-26T23:18:28.439Z,0.80
2019-02-26T23:20:59.739Z,0.80
2019-02-26T23:23:28.915Z,0.70
2019-02-26T23:25:56.168Z,0.67
2019-02-26T23:28:23.479Z,0.70
2019-02-26T23:30:50.693Z,0.77
2019-02-26T23:33:23.046Z,0.70
2019-02-26T23:35:54.832Z,0.80
2019-02-26T23:38:21.447Z,0.63
2019-02-26T23:40:48.796Z,1.10
2019-02-26T23:43:17.935Z,0.70
2019-02-26T23:45:47.467Z,0.87
2019-02-26T23:48:20.178Z,1.07
2019-02-26T23:50:52.356Z,0.90
2019-02-26T23:53:23.567Z,1.23
2019-02-26T23:55:50.944Z,1.00
2019-02-26T23:58:20.561Z,0.57
